Terminal Aerodrome Forecast
Issued by NWS

Home | Current Version | Previous Version | Text Only | Print | Product List | Glossary Off
Versions: 1 2 3 4 5 6 7 8 9 10 11 12 13 14 15 16 17 18 19 20 21 22 23

000
FTUS42 KMHX 291720
TAFISO
TAF
KISO 291720Z 2918/3018 04007KT P6SM BKN015
     FM292000 VRB05KT P6SM FEW025 SCT040
     FM300800 VRB03KT 4SM BR BKN008
     FM301400 06005KT P6SM BKN015
     FM301600 06006KT P6SM BKN035
      AMD LTD TO CLD VIS AND WIND=

USA.gov is the U.S. government's official web portal to all federal, state and local government web resources and services.